sensor_id;sensor_type;location;lat;lon;timestamp;temperature;humidity
77218;DHT22;66214;51.302;17.068;2022-12-28T00:01:34;1.66;81.97
77218;DHT22;66214;51.302;17.068;2022-12-28T00:04:03;1.64;81.88
77218;DHT22;66214;51.302;17.068;2022-12-28T00:06:35;1.63;81.81
77218;DHT22;66214;51.302;17.068;2022-12-28T00:09:03;1.59;81.60
77218;DHT22;66214;51.302;17.068;2022-12-28T00:11:32;1.52;81.64
77218;DHT22;66214;51.302;17.068;2022-12-28T00:14:00;1.51;81.92
77218;DHT22;66214;51.302;17.068;2022-12-28T00:16:30;1.55;82.11
77218;DHT22;66214;51.302;17.068;2022-12-28T00:19:14;1.57;82.12
77218;DHT22;66214;51.302;17.068;2022-12-28T00:21:44;1.57;82.15
77218;DHT22;66214;51.302;17.068;2022-12-28T00:24:17;1.56;82.21
77218;DHT22;66214;51.302;17.068;2022-12-28T00:26:48;1.55;82.22
77218;DHT22;66214;51.302;17.068;2022-12-28T00:29:17;1.54;82.07
77218;DHT22;66214;51.302;17.068;2022-12-28T00:31:46;1.52;82.05
77218;DHT22;66214;51.302;17.068;2022-12-28T00:34:15;1.51;82.17
77218;DHT22;66214;51.302;17.068;2022-12-28T00:36:43;1.50;82.09
77218;DHT22;66214;51.302;17.068;2022-12-28T00:39:11;1.49;82.05
77218;DHT22;66214;51.302;17.068;2022-12-28T00:41:39;1.47;82.00
77218;DHT22;66214;51.302;17.068;2022-12-28T00:44:07;1.46;81.99
77218;DHT22;66214;51.302;17.068;2022-12-28T00:46:35;1.44;82.09
77218;DHT22;66214;51.302;17.068;2022-12-28T00:49:03;1.45;82.03
77218;DHT22;66214;51.302;17.068;2022-12-28T00:51:31;1.45;82.14
77218;DHT22;66214;51.302;17.068;2022-12-28T00:53:59;1.45;82.22
77218;DHT22;66214;51.302;17.068;2022-12-28T00:56:38;1.46;82.27
77218;DHT22;66214;51.302;17.068;2022-12-28T00:59:11;1.47;82.30
77218;DHT22;66214;51.302;17.068;2022-12-28T01:01:39;1.48;82.21
77218;DHT22;66214;51.302;17.068;2022-12-28T01:04:07;1.46;82.12
77218;DHT22;66214;51.302;17.068;2022-12-28T01:06:35;1.44;81.97
77218;DHT22;66214;51.302;17.068;2022-12-28T01:09:03;1.40;81.79
77218;DHT22;66214;51.302;17.068;2022-12-28T01:11:32;1.36;81.70
77218;DHT22;66214;51.302;17.068;2022-12-28T01:14:00;1.31;81.66
77218;DHT22;66214;51.302;17.068;2022-12-28T01:16:31;1.28;81.66
77218;DHT22;66214;51.302;17.068;2022-12-28T01:19:03;1.26;81.73
77218;DHT22;66214;51.302;17.068;2022-12-28T01:21:34;1.26;81.72
77218;DHT22;66214;51.302;17.068;2022-12-28T01:24:04;1.27;82.12
77218;DHT22;66214;51.302;17.068;2022-12-28T01:26:36;1.34;82.28
77218;DHT22;66214;51.302;17.068;2022-12-28T01:29:04;1.39;82.32
77218;DHT22;66214;51.302;17.068;2022-12-28T01:31:33;1.42;82.37
77218;DHT22;66214;51.302;17.068;2022-12-28T01:34:01;1.41;82.38
77218;DHT22;66214;51.302;17.068;2022-12-28T01:36:31;1.38;82.34
77218;DHT22;66214;51.302;17.068;2022-12-28T01:39:02;1.33;82.37
77218;DHT22;66214;51.302;17.068;2022-12-28T01:41:35;1.27;82.36
77218;DHT22;66214;51.302;17.068;2022-12-28T01:47:44;1.16;83.18
77218;DHT22;66214;51.302;17.068;2022-12-28T01:50:16;1.14;83.04
77218;DHT22;66214;51.302;17.068;2022-12-28T01:52:54;1.13;82.80
77218;DHT22;66214;51.302;17.068;2022-12-28T01:55:28;1.14;82.81
77218;DHT22;66214;51.302;17.068;2022-12-28T01:58:04;1.15;82.88
77218;DHT22;66214;51.302;17.068;2022-12-28T02:00:38;1.15;83.00
77218;DHT22;66214;51.302;17.068;2022-12-28T02:03:08;1.16;83.03
77218;DHT22;66214;51.302;17.068;2022-12-28T02:05:50;1.17;83.08
77218;DHT22;66214;51.302;17.068;2022-12-28T02:11:14;1.24;83.06
77218;DHT22;66214;51.302;17.068;2022-12-28T02:13:45;1.25;83.04
77218;DHT22;66214;51.302;17.068;2022-12-28T02:16:16;1.27;82.92
77218;DHT22;66214;51.302;17.068;2022-12-28T02:18:44;1.27;82.90
77218;DHT22;66214;51.302;17.068;2022-12-28T02:28:17;1.27;82.78
77218;DHT22;66214;51.302;17.068;2022-12-28T02:30:37;1.21;82.69
77218;DHT22;66214;51.302;17.068;2022-12-28T02:33:16;1.15;82.69
77218;DHT22;66214;51.302;17.068;2022-12-28T02:35:54;1.13;83.10
77218;DHT22;66214;51.302;17.068;2022-12-28T02:38:29;1.12;83.19
77218;DHT22;66214;51.302;17.068;2022-12-28T02:41:06;1.08;83.20
77218;DHT22;66214;51.302;17.068;2022-12-28T02:43:39;1.09;83.30
77218;DHT22;66214;51.302;17.068;2022-12-28T02:46:11;1.07;83.41
77218;DHT22;66214;51.302;17.068;2022-12-28T02:49:17;1.07;83.37
77218;DHT22;66214;51.302;17.068;2022-12-28T02:55:05;1.02;83.09
77218;DHT22;66214;51.302;17.068;2022-12-28T03:07:15;0.80;83.32
77218;DHT22;66214;51.302;17.068;2022-12-28T03:12:49;0.76;83.76
77218;DHT22;66214;51.302;17.068;2022-12-28T03:15:56;0.79;84.01
77218;DHT22;66214;51.302;17.068;2022-12-28T03:18:32;0.80;83.93
77218;DHT22;66214;51.302;17.068;2022-12-28T03:21:21;0.81;84.04
77218;DHT22;66214;51.302;17.068;2022-12-28T03:24:10;0.83;84.01
77218;DHT22;66214;51.302;17.068;2022-12-28T03:26:58;0.84;83.91
77218;DHT22;66214;51.302;17.068;2022-12-28T03:29:49;0.86;83.74
77218;DHT22;66214;51.302;17.068;2022-12-28T03:36:31;0.94;83.90
77218;DHT22;66214;51.302;17.068;2022-12-28T03:39:55;0.98;84.06
77218;DHT22;66214;51.302;17.068;2022-12-28T03:42:14;1.01;83.90
77218;DHT22;66214;51.302;17.068;2022-12-28T03:47:47;1.08;83.66
77218;DHT22;66214;51.302;17.068;2022-12-28T03:50:18;1.13;83.83
77218;DHT22;66214;51.302;17.068;2022-12-28T03:52:48;1.21;84.19
77218;DHT22;66214;51.302;17.068;2022-12-28T03:55:18;1.29;84.18
77218;DHT22;66214;51.302;17.068;2022-12-28T03:57:46;1.35;84.19
77218;DHT22;66214;51.302;17.068;2022-12-28T04:00:14;1.40;84.25
77218;DHT22;66214;51.302;17.068;2022-12-28T04:02:42;1.45;84.15
77218;DHT22;66214;51.302;17.068;2022-12-28T04:05:10;1.48;83.94
77218;DHT22;66214;51.302;17.068;2022-12-28T04:07:38;1.52;83.82
77218;DHT22;66214;51.302;17.068;2022-12-28T04:10:06;1.54;83.70
77218;DHT22;66214;51.302;17.068;2022-12-28T04:12:34;1.57;83.62
77218;DHT22;66214;51.302;17.068;2022-12-28T04:15:03;1.57;83.60
77218;DHT22;66214;51.302;17.068;2022-12-28T04:17:32;1.58;83.53
77218;DHT22;66214;51.302;17.068;2022-12-28T04:20:00;1.60;83.46
77218;DHT22;66214;51.302;17.068;2022-12-28T04:22:28;1.61;83.47
77218;DHT22;66214;51.302;17.068;2022-12-28T04:24:56;1.64;83.62
77218;DHT22;66214;51.302;17.068;2022-12-28T04:27:24;1.68;83.71
77218;DHT22;66214;51.302;17.068;2022-12-28T04:29:52;1.72;83.84
77218;DHT22;66214;51.302;17.068;2022-12-28T04:32:20;1.74;83.89
77218;DHT22;66214;51.302;17.068;2022-12-28T04:34:48;1.78;83.86
77218;DHT22;66214;51.302;17.068;2022-12-28T04:37:16;1.82;83.91
77218;DHT22;66214;51.302;17.068;2022-12-28T04:39:44;1.85;83.79
77218;DHT22;66214;51.302;17.068;2022-12-28T04:42:12;1.87;83.65
77218;DHT22;66214;51.302;17.068;2022-12-28T04:44:40;1.87;83.49
77218;DHT22;66214;51.302;17.068;2022-12-28T04:47:08;1.87;83.31
77218;DHT22;66214;51.302;17.068;2022-12-28T04:49:36;1.85;83.23
77218;DHT22;66214;51.302;17.068;2022-12-28T04:52:04;1.81;83.15
77218;DHT22;66214;51.302;17.068;2022-12-28T04:54:32;1.77;83.13
77218;DHT22;66214;51.302;17.068;2022-12-28T04:57:00;1.72;83.27
77218;DHT22;66214;51.302;17.068;2022-12-28T04:59:28;1.68;83.35
77218;DHT22;66214;51.302;17.068;2022-12-28T05:01:56;1.66;83.44
77218;DHT22;66214;51.302;17.068;2022-12-28T05:04:24;1.63;83.53
77218;DHT22;66214;51.302;17.068;2022-12-28T05:06:53;1.62;83.63
77218;DHT22;66214;51.302;17.068;2022-12-28T05:09:21;1.61;83.66
77218;DHT22;66214;51.302;17.068;2022-12-28T05:11:49;1.59;83.70
77218;DHT22;66214;51.302;17.068;2022-12-28T05:14:17;1.58;83.75
77218;DHT22;66214;51.302;17.068;2022-12-28T05:16:45;1.59;83.63
77218;DHT22;66214;51.302;17.068;2022-12-28T05:19:18;1.58;83.48
77218;DHT22;66214;51.302;17.068;2022-12-28T05:21:46;1.56;83.34
77218;DHT22;66214;51.302;17.068;2022-12-28T05:24:14;1.52;83.33
77218;DHT22;66214;51.302;17.068;2022-12-28T05:26:42;1.48;83.35
77218;DHT22;66214;51.302;17.068;2022-12-28T05:29:10;1.44;83.50
77218;DHT22;66214;51.302;17.068;2022-12-28T05:31:38;1.39;83.49
77218;DHT22;66214;51.302;17.068;2022-12-28T05:34:06;1.36;83.48
77218;DHT22;66214;51.302;17.068;2022-12-28T05:36:34;1.33;83.61
77218;DHT22;66214;51.302;17.068;2022-12-28T05:39:04;1.32;83.70
77218;DHT22;66214;51.302;17.068;2022-12-28T05:41:32;1.33;83.95
77218;DHT22;66214;51.302;17.068;2022-12-28T05:44:00;1.34;84.08
77218;DHT22;66214;51.302;17.068;2022-12-28T05:46:29;1.35;84.21
77218;DHT22;66214;51.302;17.068;2022-12-28T05:49:00;1.37;84.17
77218;DHT22;66214;51.302;17.068;2022-12-28T05:51:29;1.39;84.20
77218;DHT22;66214;51.302;17.068;2022-12-28T05:53:59;1.39;84.19
77218;DHT22;66214;51.302;17.068;2022-12-28T05:56:31;1.39;84.41
77218;DHT22;66214;51.302;17.068;2022-12-28T05:59:03;1.40;84.30
77218;DHT22;66214;51.302;17.068;2022-12-28T06:01:35;1.38;84.11
77218;DHT22;66214;51.302;17.068;2022-12-28T06:04:07;1.36;84.05
77218;DHT22;66214;51.302;17.068;2022-12-28T06:06:44;1.34;84.04
77218;DHT22;66214;51.302;17.068;2022-12-28T06:09:13;1.31;84.05
77218;DHT22;66214;51.302;17.068;2022-12-28T06:11:42;1.32;84.28
77218;DHT22;66214;51.302;17.068;2022-12-28T06:14:10;1.35;84.31
77218;DHT22;66214;51.302;17.068;2022-12-28T06:16:39;1.37;84.43
77218;DHT22;66214;51.302;17.068;2022-12-28T06:19:09;1.38;84.55
77218;DHT22;66214;51.302;17.068;2022-12-28T06:21:38;1.40;84.60
77218;DHT22;66214;51.302;17.068;2022-12-28T06:24:08;1.39;84.47
77218;DHT22;66214;51.302;17.068;2022-12-28T06:26:38;1.35;84.49
77218;DHT22;66214;51.302;17.068;2022-12-28T06:29:07;1.30;84.57
77218;DHT22;66214;51.302;17.068;2022-12-28T06:31:37;1.22;84.85
77218;DHT22;66214;51.302;17.068;2022-12-28T06:34:08;1.17;84.80
77218;DHT22;66214;51.302;17.068;2022-12-28T06:36:38;1.11;84.77
77218;DHT22;66214;51.302;17.068;2022-12-28T06:39:10;1.07;84.83
77218;DHT22;66214;51.302;17.068;2022-12-28T06:41:40;1.03;84.86
77218;DHT22;66214;51.302;17.068;2022-12-28T06:44:10;1.03;85.09
77218;DHT22;66214;51.302;17.068;2022-12-28T06:46:40;1.04;85.29
77218;DHT22;66214;51.302;17.068;2022-12-28T06:49:08;1.06;85.35
77218;DHT22;66214;51.302;17.068;2022-12-28T06:51:37;1.07;85.41
77218;DHT22;66214;51.302;17.068;2022-12-28T06:54:08;1.08;85.37
77218;DHT22;66214;51.302;17.068;2022-12-28T07:00:12;1.22;85.64
77218;DHT22;66214;51.302;17.068;2022-12-28T07:02:40;1.31;85.52
77218;DHT22;66214;51.302;17.068;2022-12-28T07:05:08;1.41;85.18
77218;DHT22;66214;51.302;17.068;2022-12-28T07:07:36;1.48;84.98
77218;DHT22;66214;51.302;17.068;2022-12-28T07:10:04;1.57;84.77
77218;DHT22;66214;51.302;17.068;2022-12-28T07:12:33;1.71;84.52
77218;DHT22;66214;51.302;17.068;2022-12-28T07:15:01;1.86;84.30
77218;DHT22;66214;51.302;17.068;2022-12-28T07:17:30;1.97;83.98
77218;DHT22;66214;51.302;17.068;2022-12-28T07:19:58;2.08;83.71
77218;DHT22;66214;51.302;17.068;2022-12-28T07:22:26;2.16;83.41
77218;DHT22;66214;51.302;17.068;2022-12-28T07:24:54;2.25;83.13
77218;DHT22;66214;51.302;17.068;2022-12-28T07:27:22;2.32;82.86
77218;DHT22;66214;51.302;17.068;2022-12-28T07:29:50;2.37;82.72
77218;DHT22;66214;51.302;17.068;2022-12-28T07:32:18;2.40;82.67
77218;DHT22;66214;51.302;17.068;2022-12-28T07:34:46;2.41;82.58
77218;DHT22;66214;51.302;17.068;2022-12-28T07:37:14;2.42;82.52
77218;DHT22;66214;51.302;17.068;2022-12-28T07:39:42;2.42;82.44
77218;DHT22;66214;51.302;17.068;2022-12-28T07:42:11;2.44;82.36
77218;DHT22;66214;51.302;17.068;2022-12-28T07:44:39;2.42;82.32
77218;DHT22;66214;51.302;17.068;2022-12-28T07:47:12;2.41;82.31
77218;DHT22;66214;51.302;17.068;2022-12-28T07:49:41;2.43;82.50
77218;DHT22;66214;51.302;17.068;2022-12-28T07:52:09;2.46;82.68
77218;DHT22;66214;51.302;17.068;2022-12-28T07:58:13;2.61;82.91
77218;DHT22;66214;51.302;17.068;2022-12-28T08:00:41;2.69;82.19
77218;DHT22;66214;51.302;17.068;2022-12-28T08:03:09;2.79;81.76
77218;DHT22;66214;51.302;17.068;2022-12-28T08:05:38;2.84;81.29
77218;DHT22;66214;51.302;17.068;2022-12-28T08:08:06;2.92;81.07
77218;DHT22;66214;51.302;17.068;2022-12-28T08:10:34;2.96;80.91
77218;DHT22;66214;51.302;17.068;2022-12-28T08:13:03;3.00;80.53
77218;DHT22;66214;51.302;17.068;2022-12-28T08:15:31;3.06;80.57
77218;DHT22;66214;51.302;17.068;2022-12-28T08:17:59;3.13;80.43
77218;DHT22;66214;51.302;17.068;2022-12-28T08:20:27;3.20;80.47
77218;DHT22;66214;51.302;17.068;2022-12-28T08:22:55;3.25;80.48
77218;DHT22;66214;51.302;17.068;2022-12-28T08:25:23;3.29;80.46
77218;DHT22;66214;51.302;17.068;2022-12-28T08:27:51;3.31;80.38
77218;DHT22;66214;51.302;17.068;2022-12-28T08:30:19;3.31;80.21
77218;DHT22;66214;51.302;17.068;2022-12-28T08:32:47;3.31;80.21
77218;DHT22;66214;51.302;17.068;2022-12-28T08:35:15;3.30;80.24
77218;DHT22;66214;51.302;17.068;2022-12-28T08:37:43;3.27;80.30
77218;DHT22;66214;51.302;17.068;2022-12-28T08:40:11;3.24;80.35
77218;DHT22;66214;51.302;17.068;2022-12-28T08:42:39;3.20;80.27
77218;DHT22;66214;51.302;17.068;2022-12-28T08:45:07;3.19;80.43
77218;DHT22;66214;51.302;17.068;2022-12-28T08:47:36;3.19;80.41
77218;DHT22;66214;51.302;17.068;2022-12-28T08:50:04;3.22;80.59
77218;DHT22;66214;51.302;17.068;2022-12-28T08:52:34;3.28;80.57
77218;DHT22;66214;51.302;17.068;2022-12-28T08:55:02;3.32;80.49
77218;DHT22;66214;51.302;17.068;2022-12-28T08:57:31;3.39;80.63
77218;DHT22;66214;51.302;17.068;2022-12-28T09:00:01;3.43;80.60
77218;DHT22;66214;51.302;17.068;2022-12-28T09:02:32;3.47;80.38
77218;DHT22;66214;51.302;17.068;2022-12-28T09:05:01;3.52;80.30
77218;DHT22;66214;51.302;17.068;2022-12-28T09:07:29;3.54;80.14
77218;DHT22;66214;51.302;17.068;2022-12-28T09:09:56;3.59;79.88
77218;DHT22;66214;51.302;17.068;2022-12-28T09:12:25;3.63;79.81
77218;DHT22;66214;51.302;17.068;2022-12-28T09:14:53;3.67;79.76
77218;DHT22;66214;51.302;17.068;2022-12-28T09:17:21;3.71;79.74
77218;DHT22;66214;51.302;17.068;2022-12-28T09:19:49;3.72;79.40
77218;DHT22;66214;51.302;17.068;2022-12-28T09:22:17;3.73;79.38
77218;DHT22;66214;51.302;17.068;2022-12-28T09:24:45;3.75;79.48
77218;DHT22;66214;51.302;17.068;2022-12-28T09:27:13;3.78;79.53
77218;DHT22;66214;51.302;17.068;2022-12-28T09:29:41;3.82;79.77
77218;DHT22;66214;51.302;17.068;2022-12-28T09:32:09;3.87;79.96
77218;DHT22;66214;51.302;17.068;2022-12-28T09:34:37;3.92;79.98
77218;DHT22;66214;51.302;17.068;2022-12-28T09:37:06;3.95;79.99
77218;DHT22;66214;51.302;17.068;2022-12-28T09:39:35;4.00;79.78
77218;DHT22;66214;51.302;17.068;2022-12-28T09:52:52;4.18;78.73
77218;DHT22;66214;51.302;17.068;2022-12-28T09:55:25;4.22;78.45
77218;DHT22;66214;51.302;17.068;2022-12-28T09:57:55;4.28;78.26
77218;DHT22;66214;51.302;17.068;2022-12-28T10:00:32;4.37;78.25
77218;DHT22;66214;51.302;17.068;2022-12-28T10:03:13;4.47;77.98
77218;DHT22;66214;51.302;17.068;2022-12-28T10:05:47;4.59;77.87
77218;DHT22;66214;51.302;17.068;2022-12-28T10:08:18;4.76;78.11
77218;DHT22;66214;51.302;17.068;2022-12-28T10:10:49;4.90;77.51
77218;DHT22;66214;51.302;17.068;2022-12-28T10:13:23;5.09;77.45
77218;DHT22;66214;51.302;17.068;2022-12-28T10:15:55;5.29;76.55
77218;DHT22;66214;51.302;17.068;2022-12-28T10:18:25;5.46;76.28
77218;DHT22;66214;51.302;17.068;2022-12-28T10:20:55;5.64;75.75
77218;DHT22;66214;51.302;17.068;2022-12-28T10:23:24;5.81;74.15
77218;DHT22;66214;51.302;17.068;2022-12-28T10:26:03;5.93;73.79
77218;DHT22;66214;51.302;17.068;2022-12-28T10:28:36;5.97;73.01
77218;DHT22;66214;51.302;17.068;2022-12-28T10:31:12;6.03;73.64
77218;DHT22;66214;51.302;17.068;2022-12-28T10:33:48;6.05;72.81
77218;DHT22;66214;51.302;17.068;2022-12-28T10:36:20;6.06;72.26
77218;DHT22;66214;51.302;17.068;2022-12-28T10:38:51;6.06;71.83
77218;DHT22;66214;51.302;17.068;2022-12-28T10:41:30;6.08;71.90
77218;DHT22;66214;51.302;17.068;2022-12-28T10:44:10;6.06;71.31
77218;DHT22;66214;51.302;17.068;2022-12-28T10:46:56;5.99;70.98
77218;DHT22;66214;51.302;17.068;2022-12-28T10:49:34;5.97;71.04
77218;DHT22;66214;51.302;17.068;2022-12-28T10:54:46;5.99;70.67
77218;DHT22;66214;51.302;17.068;2022-12-28T10:57:19;6.10;70.57
77218;DHT22;66214;51.302;17.068;2022-12-28T11:00:30;6.06;69.87
77218;DHT22;66214;51.302;17.068;2022-12-28T11:06:31;6.40;70.08
77218;DHT22;66214;51.302;17.068;2022-12-28T11:11:40;6.60;69.83
77218;DHT22;66214;51.302;17.068;2022-12-28T11:17:13;6.89;69.21
77218;DHT22;66214;51.302;17.068;2022-12-28T11:19:48;7.00;69.06
77218;DHT22;66214;51.302;17.068;2022-12-28T11:22:21;7.06;68.27
77218;DHT22;66214;51.302;17.068;2022-12-28T11:24:53;7.08;67.97
77218;DHT22;66214;51.302;17.068;2022-12-28T11:27:25;7.13;68.48
77218;DHT22;66214;51.302;17.068;2022-12-28T11:29:55;7.17;68.31
77218;DHT22;66214;51.302;17.068;2022-12-28T11:32:25;7.18;68.06
77218;DHT22;66214;51.302;17.068;2022-12-28T11:35:00;7.18;67.80
77218;DHT22;66214;51.302;17.068;2022-12-28T11:37:29;7.22;67.68
77218;DHT22;66214;51.302;17.068;2022-12-28T11:39:57;7.30;67.89
77218;DHT22;66214;51.302;17.068;2022-12-28T11:47:35;7.54;67.04
77218;DHT22;66214;51.302;17.068;2022-12-28T11:53:01;7.66;66.77
77218;DHT22;66214;51.302;17.068;2022-12-28T11:55:37;7.69;66.35
77218;DHT22;66214;51.302;17.068;2022-12-28T12:11:49;7.51;65.43
77218;DHT22;66214;51.302;17.068;2022-12-28T12:25:57;7.09;66.66
77218;DHT22;66214;51.302;17.068;2022-12-28T12:32:21;7.10;67.23
77218;DHT22;66214;51.302;17.068;2022-12-28T13:05:44;7.46;67.57
77218;DHT22;66214;51.302;17.068;2022-12-28T13:11:35;7.57;67.58
77218;DHT22;66214;51.302;17.068;2022-12-28T13:14:05;7.55;67.37
77218;DHT22;66214;51.302;17.068;2022-12-28T13:16:49;7.54;67.55
77218;DHT22;66214;51.302;17.068;2022-12-28T13:19:21;7.48;67.41
77218;DHT22;66214;51.302;17.068;2022-12-28T13:21:52;7.44;67.50
77218;DHT22;66214;51.302;17.068;2022-12-28T13:24:23;7.47;67.70
77218;DHT22;66214;51.302;17.068;2022-12-28T13:26:54;7.47;67.85
77218;DHT22;66214;51.302;17.068;2022-12-28T13:29:33;7.47;68.07
77218;DHT22;66214;51.302;17.068;2022-12-28T13:32:22;7.40;67.99
77218;DHT22;66214;51.302;17.068;2022-12-28T13:34:55;7.40;68.39
77218;DHT22;66214;51.302;17.068;2022-12-28T13:37:23;7.43;68.77
77218;DHT22;66214;51.302;17.068;2022-12-28T13:52:08;7.33;69.13
77218;DHT22;66214;51.302;17.068;2022-12-28T13:54:46;7.26;69.05
77218;DHT22;66214;51.302;17.068;2022-12-28T13:57:18;7.23;69.19
77218;DHT22;66214;51.302;17.068;2022-12-28T13:59:49;7.17;69.38
77218;DHT22;66214;51.302;17.068;2022-12-28T14:02:19;7.16;69.53
77218;DHT22;66214;51.302;17.068;2022-12-28T14:04:50;7.13;69.75
77218;DHT22;66214;51.302;17.068;2022-12-28T14:07:22;7.07;69.88
77218;DHT22;66214;51.302;17.068;2022-12-28T14:09:54;7.05;70.04
77218;DHT22;66214;51.302;17.068;2022-12-28T14:12:24;7.05;70.12
77218;DHT22;66214;51.302;17.068;2022-12-28T14:14:52;7.05;70.30
77218;DHT22;66214;51.302;17.068;2022-12-28T14:17:21;7.06;70.38
77218;DHT22;66214;51.302;17.068;2022-12-28T14:19:51;7.07;70.43
77218;DHT22;66214;51.302;17.068;2022-12-28T14:22:27;7.04;70.45
77218;DHT22;66214;51.302;17.068;2022-12-28T14:25:08;7.02;70.56
77218;DHT22;66214;51.302;17.068;2022-12-28T14:28:01;7.01;70.64
77218;DHT22;66214;51.302;17.068;2022-12-28T14:30:35;6.99;70.72
77218;DHT22;66214;51.302;17.068;2022-12-28T14:33:25;6.97;70.87
77218;DHT22;66214;51.302;17.068;2022-12-28T14:35:58;6.95;70.97
77218;DHT22;66214;51.302;17.068;2022-12-28T14:38:33;6.94;71.09
77218;DHT22;66214;51.302;17.068;2022-12-28T14:41:14;6.91;71.21
77218;DHT22;66214;51.302;17.068;2022-12-28T14:43:57;6.93;71.41
77218;DHT22;66214;51.302;17.068;2022-12-28T14:49:23;6.98;71.36
77218;DHT22;66214;51.302;17.068;2022-12-28T14:54:51;6.97;71.12
77218;DHT22;66214;51.302;17.068;2022-12-28T14:59:57;6.91;71.24
77218;DHT22;66214;51.302;17.068;2022-12-28T15:05:01;6.84;71.35
77218;DHT22;66214;51.302;17.068;2022-12-28T15:07:30;6.81;71.42
77218;DHT22;66214;51.302;17.068;2022-12-28T15:09:59;6.78;71.46
77218;DHT22;66214;51.302;17.068;2022-12-28T15:12:27;6.76;71.58
77218;DHT22;66214;51.302;17.068;2022-12-28T15:14:55;6.74;71.77
77218;DHT22;66214;51.302;17.068;2022-12-28T15:17:24;6.74;71.79
77218;DHT22;66214;51.302;17.068;2022-12-28T15:19:53;6.75;71.94
77218;DHT22;66214;51.302;17.068;2022-12-28T15:22:21;6.77;71.94
77218;DHT22;66214;51.302;17.068;2022-12-28T15:24:50;6.77;71.96
77218;DHT22;66214;51.302;17.068;2022-12-28T15:27:18;6.78;71.93
77218;DHT22;66214;51.302;17.068;2022-12-28T15:29:46;6.78;71.93
77218;DHT22;66214;51.302;17.068;2022-12-28T15:32:14;6.77;71.96
77218;DHT22;66214;51.302;17.068;2022-12-28T15:34:42;6.75;72.02
77218;DHT22;66214;51.302;17.068;2022-12-28T15:37:10;6.75;72.06
77218;DHT22;66214;51.302;17.068;2022-12-28T15:39:39;6.75;72.10
77218;DHT22;66214;51.302;17.068;2022-12-28T15:42:07;6.74;72.10
77218;DHT22;66214;51.302;17.068;2022-12-28T15:44:35;6.73;72.15
77218;DHT22;66214;51.302;17.068;2022-12-28T15:47:03;6.71;72.27
77218;DHT22;66214;51.302;17.068;2022-12-28T15:49:31;6.72;72.35
77218;DHT22;66214;51.302;17.068;2022-12-28T15:55:25;6.77;72.74
77218;DHT22;66214;51.302;17.068;2022-12-28T16:01:19;6.84;72.62
77218;DHT22;66214;51.302;17.068;2022-12-28T16:03:48;6.83;72.40
77218;DHT22;66214;51.302;17.068;2022-12-28T16:06:16;6.84;72.35
77218;DHT22;66214;51.302;17.068;2022-12-28T16:08:44;6.84;72.26
77218;DHT22;66214;51.302;17.068;2022-12-28T16:11:12;6.83;72.24
77218;DHT22;66214;51.302;17.068;2022-12-28T16:13:41;6.82;72.32
77218;DHT22;66214;51.302;17.068;2022-12-28T16:16:10;6.80;72.40
77218;DHT22;66214;51.302;17.068;2022-12-28T16:18:38;6.80;72.43
77218;DHT22;66214;51.302;17.068;2022-12-28T16:21:07;6.80;72.63
77218;DHT22;66214;51.302;17.068;2022-12-28T16:23:36;6.84;72.66
77218;DHT22;66214;51.302;17.068;2022-12-28T16:26:06;6.85;72.65
77218;DHT22;66214;51.302;17.068;2022-12-28T16:28:34;6.85;72.66
77218;DHT22;66214;51.302;17.068;2022-12-28T16:31:02;6.86;72.65
77218;DHT22;66214;51.302;17.068;2022-12-28T16:33:29;6.85;72.66
77218;DHT22;66214;51.302;17.068;2022-12-28T16:35:56;6.85;72.68
77218;DHT22;66214;51.302;17.068;2022-12-28T16:38:25;6.84;72.66
77218;DHT22;66214;51.302;17.068;2022-12-28T16:40:54;6.83;72.67
77218;DHT22;66214;51.302;17.068;2022-12-28T16:43:22;6.83;72.67
77218;DHT22;66214;51.302;17.068;2022-12-28T16:45:49;6.83;72.68
77218;DHT22;66214;51.302;17.068;2022-12-28T16:48:16;6.83;72.66
77218;DHT22;66214;51.302;17.068;2022-12-28T16:50:44;6.84;72.66
77218;DHT22;66214;51.302;17.068;2022-12-28T16:53:23;6.85;72.67
77218;DHT22;66214;51.302;17.068;2022-12-28T16:55:51;6.88;72.71
77218;DHT22;66214;51.302;17.068;2022-12-28T16:58:18;6.92;72.71
77218;DHT22;66214;51.302;17.068;2022-12-28T17:00:45;6.96;72.64
77218;DHT22;66214;51.302;17.068;2022-12-28T17:03:11;6.99;72.68
77218;DHT22;66214;51.302;17.068;2022-12-28T17:05:38;7.00;72.59
77218;DHT22;66214;51.302;17.068;2022-12-28T17:08:05;6.98;72.55
77218;DHT22;66214;51.302;17.068;2022-12-28T17:10:33;6.97;72.56
77218;DHT22;66214;51.302;17.068;2022-12-28T17:13:00;6.95;72.60
77218;DHT22;66214;51.302;17.068;2022-12-28T17:15:27;6.95;72.66
77218;DHT22;66214;51.302;17.068;2022-12-28T17:17:54;6.95;72.64
77218;DHT22;66214;51.302;17.068;2022-12-28T17:20:20;6.94;72.67
77218;DHT22;66214;51.302;17.068;2022-12-28T17:22:47;6.94;72.70
77218;DHT22;66214;51.302;17.068;2022-12-28T17:25:14;6.93;72.76
77218;DHT22;66214;51.302;17.068;2022-12-28T17:27:41;6.94;72.75
77218;DHT22;66214;51.302;17.068;2022-12-28T17:30:08;6.94;72.77
77218;DHT22;66214;51.302;17.068;2022-12-28T17:32:36;6.97;72.88
77218;DHT22;66214;51.302;17.068;2022-12-28T17:35:03;7.01;72.86
77218;DHT22;66214;51.302;17.068;2022-12-28T17:37:30;7.05;72.82
77218;DHT22;66214;51.302;17.068;2022-12-28T17:39:57;7.06;72.70
77218;DHT22;66214;51.302;17.068;2022-12-28T17:42:24;7.07;72.68
77218;DHT22;66214;51.302;17.068;2022-12-28T17:44:51;7.07;72.64
77218;DHT22;66214;51.302;17.068;2022-12-28T17:47:17;7.08;72.59
77218;DHT22;66214;51.302;17.068;2022-12-28T17:49:44;7.07;72.51
77218;DHT22;66214;51.302;17.068;2022-12-28T17:52:11;7.08;72.46
77218;DHT22;66214;51.302;17.068;2022-12-28T17:54:42;7.09;72.44
77218;DHT22;66214;51.302;17.068;2022-12-28T17:57:09;7.09;72.46
77218;DHT22;66214;51.302;17.068;2022-12-28T17:59:36;7.09;72.50
77218;DHT22;66214;51.302;17.068;2022-12-28T18:02:02;7.11;72.76
77218;DHT22;66214;51.302;17.068;2022-12-28T18:04:30;7.12;72.82
77218;DHT22;66214;51.302;17.068;2022-12-28T18:06:56;7.15;72.75
77218;DHT22;66214;51.302;17.068;2022-12-28T18:09:23;7.17;72.71
77218;DHT22;66214;51.302;17.068;2022-12-28T18:11:50;7.16;72.54
77218;DHT22;66214;51.302;17.068;2022-12-28T18:14:17;7.17;72.48
77218;DHT22;66214;51.302;17.068;2022-12-28T18:16:44;7.18;72.47
77218;DHT22;66214;51.302;17.068;2022-12-28T18:19:11;7.17;72.41
77218;DHT22;66214;51.302;17.068;2022-12-28T18:21:38;7.16;72.37
77218;DHT22;66214;51.302;17.068;2022-12-28T18:24:07;7.17;72.36
77218;DHT22;66214;51.302;17.068;2022-12-28T18:26:37;7.18;72.33
77218;DHT22;66214;51.302;17.068;2022-12-28T18:29:04;7.18;72.34
77218;DHT22;66214;51.302;17.068;2022-12-28T18:31:31;7.20;72.57
77218;DHT22;66214;51.302;17.068;2022-12-28T18:33:58;7.25;72.64
77218;DHT22;66214;51.302;17.068;2022-12-28T18:36:27;7.31;72.61
77218;DHT22;66214;51.302;17.068;2022-12-28T18:42:49;7.40;72.22